sensor_id;sensor_type;location;lat;lon;timestamp;temperature;humidity
58447;DHT22;44240;51.840;7.258;2024-01-25T00:00:21;10.70;73.70
58447;DHT22;44240;51.840;7.258;2024-01-25T00:02:47;10.70;73.80
58447;DHT22;44240;51.840;7.258;2024-01-25T00:05:15;10.60;73.80
58447;DHT22;44240;51.840;7.258;2024-01-25T00:07:48;10.70;73.90
58447;DHT22;44240;51.840;7.258;2024-01-25T00:10:17;10.60;73.80
58447;DHT22;44240;51.840;7.258;2024-01-25T00:12:44;10.60;73.80
58447;DHT22;44240;51.840;7.258;2024-01-25T00:15:12;10.60;74.00
58447;DHT22;44240;51.840;7.258;2024-01-25T00:17:38;10.60;74.10
58447;DHT22;44240;51.840;7.258;2024-01-25T00:20:06;10.60;74.10
58447;DHT22;44240;51.840;7.258;2024-01-25T00:22:33;10.60;74.10
58447;DHT22;44240;51.840;7.258;2024-01-25T00:24:59;10.60;74.10
58447;DHT22;44240;51.840;7.258;2024-01-25T00:27:26;10.50;74.10
58447;DHT22;44240;51.840;7.258;2024-01-25T00:29:53;10.60;74.20
58447;DHT22;44240;51.840;7.258;2024-01-25T00:32:20;10.50;74.10
58447;DHT22;44240;51.840;7.258;2024-01-25T00:34:47;10.50;74.20
58447;DHT22;44240;51.840;7.258;2024-01-25T00:37:15;10.50;74.20
58447;DHT22;44240;51.840;7.258;2024-01-25T00:39:42;10.50;74.20
58447;DHT22;44240;51.840;7.258;2024-01-25T00:42:12;10.50;74.30
58447;DHT22;44240;51.840;7.258;2024-01-25T00:44:39;10.40;74.20
58447;DHT22;44240;51.840;7.258;2024-01-25T00:47:06;10.40;74.20
58447;DHT22;44240;51.840;7.258;2024-01-25T00:49:33;10.50;74.30
58447;DHT22;44240;51.840;7.258;2024-01-25T00:52:02;10.40;74.30
58447;DHT22;44240;51.840;7.258;2024-01-25T00:54:30;10.40;74.30
58447;DHT22;44240;51.840;7.258;2024-01-25T00:56:57;10.40;74.30
58447;DHT22;44240;51.840;7.258;2024-01-25T00:59:24;10.40;74.30
58447;DHT22;44240;51.840;7.258;2024-01-25T01:01:52;10.40;74.30
58447;DHT22;44240;51.840;7.258;2024-01-25T01:04:20;10.30;74.30
58447;DHT22;44240;51.840;7.258;2024-01-25T01:06:47;10.40;74.40
58447;DHT22;44240;51.840;7.258;2024-01-25T01:09:15;10.30;74.40
58447;DHT22;44240;51.840;7.258;2024-01-25T01:11:41;10.30;74.50
58447;DHT22;44240;51.840;7.258;2024-01-25T01:14:09;10.30;74.50
58447;DHT22;44240;51.840;7.258;2024-01-25T01:16:36;10.30;74.50
58447;DHT22;44240;51.840;7.258;2024-01-25T01:19:03;10.30;74.50
58447;DHT22;44240;51.840;7.258;2024-01-25T01:21:34;10.30;74.50
58447;DHT22;44240;51.840;7.258;2024-01-25T01:24:02;10.30;74.50
58447;DHT22;44240;51.840;7.258;2024-01-25T01:26:28;10.30;74.50
58447;DHT22;44240;51.840;7.258;2024-01-25T01:28:55;10.30;74.60
58447;DHT22;44240;51.840;7.258;2024-01-25T01:31:22;10.30;74.60
58447;DHT22;44240;51.840;7.258;2024-01-25T01:33:49;10.30;74.60
58447;DHT22;44240;51.840;7.258;2024-01-25T01:36:16;10.30;74.60
58447;DHT22;44240;51.840;7.258;2024-01-25T01:38:42;10.30;74.60
58447;DHT22;44240;51.840;7.258;2024-01-25T01:41:10;10.20;74.60
58447;DHT22;44240;51.840;7.258;2024-01-25T01:43:40;10.20;74.40
58447;DHT22;44240;51.840;7.258;2024-01-25T01:46:17;10.20;74.60
58447;DHT22;44240;51.840;7.258;2024-01-25T01:48:47;10.20;74.50
58447;DHT22;44240;51.840;7.258;2024-01-25T01:51:14;10.20;74.60
58447;DHT22;44240;51.840;7.258;2024-01-25T01:53:41;10.10;74.50
58447;DHT22;44240;51.840;7.258;2024-01-25T01:56:09;10.10;74.50
58447;DHT22;44240;51.840;7.258;2024-01-25T01:58:36;10.10;75.60
58447;DHT22;44240;51.840;7.258;2024-01-25T02:01:04;10.00;74.60
58447;DHT22;44240;51.840;7.258;2024-01-25T02:03:31;10.00;74.70
58447;DHT22;44240;51.840;7.258;2024-01-25T02:05:58;10.00;74.80
58447;DHT22;44240;51.840;7.258;2024-01-25T02:08:29;9.90;74.80
58447;DHT22;44240;51.840;7.258;2024-01-25T02:10:56;9.90;74.80
58447;DHT22;44240;51.840;7.258;2024-01-25T02:13:23;9.90;74.90
58447;DHT22;44240;51.840;7.258;2024-01-25T02:15:50;9.80;75.00
58447;DHT22;44240;51.840;7.258;2024-01-25T02:18:17;9.80;75.00
58447;DHT22;44240;51.840;7.258;2024-01-25T02:20:44;9.80;75.10
58447;DHT22;44240;51.840;7.258;2024-01-25T02:23:11;9.70;75.00
58447;DHT22;44240;51.840;7.258;2024-01-25T02:25:38;9.70;75.00
58447;DHT22;44240;51.840;7.258;2024-01-25T02:28:05;9.70;75.10
58447;DHT22;44240;51.840;7.258;2024-01-25T02:30:32;9.70;75.10
58447;DHT22;44240;51.840;7.258;2024-01-25T02:32:58;9.60;75.10
58447;DHT22;44240;51.840;7.258;2024-01-25T02:35:26;9.60;75.10
58447;DHT22;44240;51.840;7.258;2024-01-25T02:37:52;9.60;75.30
58447;DHT22;44240;51.840;7.258;2024-01-25T02:40:19;9.50;75.10
58447;DHT22;44240;51.840;7.258;2024-01-25T02:42:46;9.50;75.20
58447;DHT22;44240;51.840;7.258;2024-01-25T02:45:13;9.50;75.30
58447;DHT22;44240;51.840;7.258;2024-01-25T02:47:40;9.40;75.30
58447;DHT22;44240;51.840;7.258;2024-01-25T02:50:07;9.40;75.40
58447;DHT22;44240;51.840;7.258;2024-01-25T02:52:34;9.40;75.50
58447;DHT22;44240;51.840;7.258;2024-01-25T02:55:01;9.40;75.40
58447;DHT22;44240;51.840;7.258;2024-01-25T02:57:28;9.30;75.40
58447;DHT22;44240;51.840;7.258;2024-01-25T02:59:54;9.30;75.50
58447;DHT22;44240;51.840;7.258;2024-01-25T03:02:21;9.30;75.60
58447;DHT22;44240;51.840;7.258;2024-01-25T03:04:48;9.30;75.70
58447;DHT22;44240;51.840;7.258;2024-01-25T03:07:15;9.30;75.80
58447;DHT22;44240;51.840;7.258;2024-01-25T03:09:42;9.20;75.80
58447;DHT22;44240;51.840;7.258;2024-01-25T03:12:09;9.20;75.80
58447;DHT22;44240;51.840;7.258;2024-01-25T03:14:36;9.20;75.80
58447;DHT22;44240;51.840;7.258;2024-01-25T03:17:03;9.20;75.80
58447;DHT22;44240;51.840;7.258;2024-01-25T03:19:29;9.10;75.80
58447;DHT22;44240;51.840;7.258;2024-01-25T03:21:56;9.10;75.90
58447;DHT22;44240;51.840;7.258;2024-01-25T03:24:23;9.10;75.80
58447;DHT22;44240;51.840;7.258;2024-01-25T03:26:51;9.10;75.90
58447;DHT22;44240;51.840;7.258;2024-01-25T03:29:17;9.00;76.00
58447;DHT22;44240;51.840;7.258;2024-01-25T03:31:44;9.00;76.10
58447;DHT22;44240;51.840;7.258;2024-01-25T03:34:11;9.00;76.20
58447;DHT22;44240;51.840;7.258;2024-01-25T03:36:38;8.90;76.30
58447;DHT22;44240;51.840;7.258;2024-01-25T03:39:06;8.90;76.40
58447;DHT22;44240;51.840;7.258;2024-01-25T03:41:33;8.90;76.60
58447;DHT22;44240;51.840;7.258;2024-01-25T03:44:00;8.80;76.60
58447;DHT22;44240;51.840;7.258;2024-01-25T03:46:27;8.80;76.50
58447;DHT22;44240;51.840;7.258;2024-01-25T03:48:54;8.80;76.60
58447;DHT22;44240;51.840;7.258;2024-01-25T03:51:21;8.80;76.60
58447;DHT22;44240;51.840;7.258;2024-01-25T03:53:50;8.80;76.70
58447;DHT22;44240;51.840;7.258;2024-01-25T03:56:19;8.80;76.70
58447;DHT22;44240;51.840;7.258;2024-01-25T03:58:46;8.70;76.70
58447;DHT22;44240;51.840;7.258;2024-01-25T04:01:13;8.70;76.70
58447;DHT22;44240;51.840;7.258;2024-01-25T04:03:40;8.70;76.80
58447;DHT22;44240;51.840;7.258;2024-01-25T04:06:08;8.70;77.00
58447;DHT22;44240;51.840;7.258;2024-01-25T04:08:35;8.60;77.00
58447;DHT22;44240;51.840;7.258;2024-01-25T04:11:01;8.60;77.10
58447;DHT22;44240;51.840;7.258;2024-01-25T04:13:28;8.60;77.30
58447;DHT22;44240;51.840;7.258;2024-01-25T04:15:55;8.50;77.30
58447;DHT22;44240;51.840;7.258;2024-01-25T04:18:22;8.50;77.40
58447;DHT22;44240;51.840;7.258;2024-01-25T04:20:49;8.40;77.30
58447;DHT22;44240;51.840;7.258;2024-01-25T04:23:17;8.40;77.30
58447;DHT22;44240;51.840;7.258;2024-01-25T04:25:44;8.40;77.50
58447;DHT22;44240;51.840;7.258;2024-01-25T04:28:11;8.40;77.60
58447;DHT22;44240;51.840;7.258;2024-01-25T04:30:38;8.40;77.80
58447;DHT22;44240;51.840;7.258;2024-01-25T04:33:05;8.30;78.00
58447;DHT22;44240;51.840;7.258;2024-01-25T04:35:32;8.30;78.10
58447;DHT22;44240;51.840;7.258;2024-01-25T04:37:59;8.30;78.30
58447;DHT22;44240;51.840;7.258;2024-01-25T04:40:26;8.30;78.40
58447;DHT22;44240;51.840;7.258;2024-01-25T04:42:53;8.20;78.40
58447;DHT22;44240;51.840;7.258;2024-01-25T04:45:20;8.20;78.40
58447;DHT22;44240;51.840;7.258;2024-01-25T04:47:46;8.20;78.50
58447;DHT22;44240;51.840;7.258;2024-01-25T04:50:13;8.20;78.60
58447;DHT22;44240;51.840;7.258;2024-01-25T04:52:40;8.20;78.60
58447;DHT22;44240;51.840;7.258;2024-01-25T04:55:07;8.20;78.70
58447;DHT22;44240;51.840;7.258;2024-01-25T04:57:34;8.10;78.80
58447;DHT22;44240;51.840;7.258;2024-01-25T05:00:01;8.10;78.80
58447;DHT22;44240;51.840;7.258;2024-01-25T05:02:28;8.10;78.90
58447;DHT22;44240;51.840;7.258;2024-01-25T05:04:55;8.10;79.00
58447;DHT22;44240;51.840;7.258;2024-01-25T05:07:22;8.10;79.10
58447;DHT22;44240;51.840;7.258;2024-01-25T05:09:56;8.00;79.10
58447;DHT22;44240;51.840;7.258;2024-01-25T05:12:23;8.00;79.20
58447;DHT22;44240;51.840;7.258;2024-01-25T05:14:50;8.00;79.10
58447;DHT22;44240;51.840;7.258;2024-01-25T05:17:17;8.00;79.10
58447;DHT22;44240;51.840;7.258;2024-01-25T05:19:44;8.00;79.10
58447;DHT22;44240;51.840;7.258;2024-01-25T05:22:11;8.00;79.00
58447;DHT22;44240;51.840;7.258;2024-01-25T05:24:38;7.90;79.10
58447;DHT22;44240;51.840;7.258;2024-01-25T05:27:05;7.90;79.10
58447;DHT22;44240;51.840;7.258;2024-01-25T05:29:31;7.90;79.20
58447;DHT22;44240;51.840;7.258;2024-01-25T05:31:58;7.90;79.30
58447;DHT22;44240;51.840;7.258;2024-01-25T05:34:25;7.90;79.40
58447;DHT22;44240;51.840;7.258;2024-01-25T05:36:52;7.90;79.40
58447;DHT22;44240;51.840;7.258;2024-01-25T05:39:20;7.90;79.40
58447;DHT22;44240;51.840;7.258;2024-01-25T05:41:46;7.80;79.40
58447;DHT22;44240;51.840;7.258;2024-01-25T05:44:13;7.80;80.50
58447;DHT22;44240;51.840;7.258;2024-01-25T05:46:40;7.80;79.60
58447;DHT22;44240;51.840;7.258;2024-01-25T05:49:07;7.80;79.60
58447;DHT22;44240;51.840;7.258;2024-01-25T05:51:34;7.80;79.60
58447;DHT22;44240;51.840;7.258;2024-01-25T05:54:01;7.80;79.70
58447;DHT22;44240;51.840;7.258;2024-01-25T05:56:27;7.70;79.60
58447;DHT22;44240;51.840;7.258;2024-01-25T05:58:54;7.70;79.70
58447;DHT22;44240;51.840;7.258;2024-01-25T06:01:21;7.70;80.80
58447;DHT22;44240;51.840;7.258;2024-01-25T06:03:48;7.60;79.80
58447;DHT22;44240;51.840;7.258;2024-01-25T06:06:15;7.60;79.80
58447;DHT22;44240;51.840;7.258;2024-01-25T06:08:42;7.60;79.80
58447;DHT22;44240;51.840;7.258;2024-01-25T06:11:17;7.60;79.80
58447;DHT22;44240;51.840;7.258;2024-01-25T06:13:44;7.60;79.90
58447;DHT22;44240;51.840;7.258;2024-01-25T06:16:11;7.60;79.90
58447;DHT22;44240;51.840;7.258;2024-01-25T06:18:38;7.60;80.00
58447;DHT22;44240;51.840;7.258;2024-01-25T06:21:05;7.50;80.00
58447;DHT22;44240;51.840;7.258;2024-01-25T06:23:31;7.50;80.10
58447;DHT22;44240;51.840;7.258;2024-01-25T06:25:58;7.50;80.20
58447;DHT22;44240;51.840;7.258;2024-01-25T06:28:25;7.50;80.20
58447;DHT22;44240;51.840;7.258;2024-01-25T06:30:52;7.50;80.30
58447;DHT22;44240;51.840;7.258;2024-01-25T06:33:19;7.40;80.30
58447;DHT22;44240;51.840;7.258;2024-01-25T06:35:46;7.40;80.40
58447;DHT22;44240;51.840;7.258;2024-01-25T06:38:13;7.40;80.50
58447;DHT22;44240;51.840;7.258;2024-01-25T06:40:40;7.40;80.60
58447;DHT22;44240;51.840;7.258;2024-01-25T06:43:07;7.40;80.80
58447;DHT22;44240;51.840;7.258;2024-01-25T06:45:33;7.30;80.90
58447;DHT22;44240;51.840;7.258;2024-01-25T06:48:01;7.30;80.90
58447;DHT22;44240;51.840;7.258;2024-01-25T06:50:28;7.30;81.00
58447;DHT22;44240;51.840;7.258;2024-01-25T06:52:55;7.30;80.90
58447;DHT22;44240;51.840;7.258;2024-01-25T06:55:22;7.30;81.00
58447;DHT22;44240;51.840;7.258;2024-01-25T06:57:49;7.30;81.10
58447;DHT22;44240;51.840;7.258;2024-01-25T07:00:16;7.30;81.20
58447;DHT22;44240;51.840;7.258;2024-01-25T07:02:44;7.20;81.20
58447;DHT22;44240;51.840;7.258;2024-01-25T07:05:11;7.30;81.20
58447;DHT22;44240;51.840;7.258;2024-01-25T07:07:39;7.30;81.20
58447;DHT22;44240;51.840;7.258;2024-01-25T07:10:07;7.20;81.00
58447;DHT22;44240;51.840;7.258;2024-01-25T07:12:34;7.20;81.00
58447;DHT22;44240;51.840;7.258;2024-01-25T07:15:01;7.20;81.10
58447;DHT22;44240;51.840;7.258;2024-01-25T07:17:28;7.20;81.20
58447;DHT22;44240;51.840;7.258;2024-01-25T07:19:54;7.20;81.30
58447;DHT22;44240;51.840;7.258;2024-01-25T07:22:21;7.20;81.40
58447;DHT22;44240;51.840;7.258;2024-01-25T07:24:49;7.10;81.30
58447;DHT22;44240;51.840;7.258;2024-01-25T07:27:16;7.10;81.30
58447;DHT22;44240;51.840;7.258;2024-01-25T07:29:46;7.10;81.40
58447;DHT22;44240;51.840;7.258;2024-01-25T07:32:12;7.10;81.40
58447;DHT22;44240;51.840;7.258;2024-01-25T07:34:39;7.10;81.50
58447;DHT22;44240;51.840;7.258;2024-01-25T07:37:06;7.10;81.60
58447;DHT22;44240;51.840;7.258;2024-01-25T07:39:33;7.10;81.70
58447;DHT22;44240;51.840;7.258;2024-01-25T07:42:00;7.00;81.70
58447;DHT22;44240;51.840;7.258;2024-01-25T07:44:27;7.00;81.80
58447;DHT22;44240;51.840;7.258;2024-01-25T07:46:53;7.10;82.90
58447;DHT22;44240;51.840;7.258;2024-01-25T07:49:20;7.00;81.80
58447;DHT22;44240;51.840;7.258;2024-01-25T07:51:47;7.00;81.90
58447;DHT22;44240;51.840;7.258;2024-01-25T07:54:15;7.00;82.00
58447;DHT22;44240;51.840;7.258;2024-01-25T07:56:42;7.00;82.00
58447;DHT22;44240;51.840;7.258;2024-01-25T07:59:08;7.00;82.00
58447;DHT22;44240;51.840;7.258;2024-01-25T08:01:36;7.00;82.10
58447;DHT22;44240;51.840;7.258;2024-01-25T08:04:03;7.00;82.10
58447;DHT22;44240;51.840;7.258;2024-01-25T08:06:30;7.00;82.20
58447;DHT22;44240;51.840;7.258;2024-01-25T08:08:58;7.00;82.30
58447;DHT22;44240;51.840;7.258;2024-01-25T08:11:25;7.10;82.40
58447;DHT22;44240;51.840;7.258;2024-01-25T08:13:51;7.10;82.40
58447;DHT22;44240;51.840;7.258;2024-01-25T08:16:18;7.10;82.30
58447;DHT22;44240;51.840;7.258;2024-01-25T08:18:48;7.10;82.30
58447;DHT22;44240;51.840;7.258;2024-01-25T08:21:16;7.10;82.20
58447;DHT22;44240;51.840;7.258;2024-01-25T08:23:43;7.20;82.20
58447;DHT22;44240;51.840;7.258;2024-01-25T08:26:10;7.20;82.10
58447;DHT22;44240;51.840;7.258;2024-01-25T08:28:40;7.20;82.00
58447;DHT22;44240;51.840;7.258;2024-01-25T08:31:06;7.20;82.00
58447;DHT22;44240;51.840;7.258;2024-01-25T08:33:33;7.20;82.00
58447;DHT22;44240;51.840;7.258;2024-01-25T08:36:00;7.20;82.00
58447;DHT22;44240;51.840;7.258;2024-01-25T08:38:28;7.20;82.10
58447;DHT22;44240;51.840;7.258;2024-01-25T08:40:55;7.20;82.10
58447;DHT22;44240;51.840;7.258;2024-01-25T08:43:21;7.20;82.20
58447;DHT22;44240;51.840;7.258;2024-01-25T08:45:48;7.20;82.20
58447;DHT22;44240;51.840;7.258;2024-01-25T08:48:15;7.20;82.20
58447;DHT22;44240;51.840;7.258;2024-01-25T08:50:44;7.20;82.40
58447;DHT22;44240;51.840;7.258;2024-01-25T08:53:11;7.20;82.50
58447;DHT22;44240;51.840;7.258;2024-01-25T08:55:38;7.30;82.50
58447;DHT22;44240;51.840;7.258;2024-01-25T08:58:05;7.30;82.50
58447;DHT22;44240;51.840;7.258;2024-01-25T09:00:32;7.30;82.50
58447;DHT22;44240;51.840;7.258;2024-01-25T09:02:59;7.30;82.50
58447;DHT22;44240;51.840;7.258;2024-01-25T09:05:26;7.30;82.60
58447;DHT22;44240;51.840;7.258;2024-01-25T09:07:55;7.40;82.70
58447;DHT22;44240;51.840;7.258;2024-01-25T09:10:22;7.40;82.80
58447;DHT22;44240;51.840;7.258;2024-01-25T09:12:49;7.40;82.80
58447;DHT22;44240;51.840;7.258;2024-01-25T09:15:16;7.50;82.90
58447;DHT22;44240;51.840;7.258;2024-01-25T09:17:43;7.50;82.90
58447;DHT22;44240;51.840;7.258;2024-01-25T09:20:11;7.60;83.00
58447;DHT22;44240;51.840;7.258;2024-01-25T09:22:39;7.60;83.10
58447;DHT22;44240;51.840;7.258;2024-01-25T09:25:06;7.60;83.10
58447;DHT22;44240;51.840;7.258;2024-01-25T09:27:36;7.60;83.20
58447;DHT22;44240;51.840;7.258;2024-01-25T09:30:05;7.60;83.20
58447;DHT22;44240;51.840;7.258;2024-01-25T09:32:32;7.60;83.20
58447;DHT22;44240;51.840;7.258;2024-01-25T09:34:59;7.70;83.30
58447;DHT22;44240;51.840;7.258;2024-01-25T09:37:26;7.70;83.20
58447;DHT22;44240;51.840;7.258;2024-01-25T09:39:54;7.70;83.20
58447;DHT22;44240;51.840;7.258;2024-01-25T09:42:21;7.80;83.10
58447;DHT22;44240;51.840;7.258;2024-01-25T09:44:48;7.80;83.10
58447;DHT22;44240;51.840;7.258;2024-01-25T09:47:15;7.80;83.20
58447;DHT22;44240;51.840;7.258;2024-01-25T09:49:43;7.90;83.20
58447;DHT22;44240;51.840;7.258;2024-01-25T09:52:13;7.90;83.20
58447;DHT22;44240;51.840;7.258;2024-01-25T09:54:40;8.00;83.20
58447;DHT22;44240;51.840;7.258;2024-01-25T09:57:16;8.10;83.10
58447;DHT22;44240;51.840;7.258;2024-01-25T09:59:44;8.10;83.20
58447;DHT22;44240;51.840;7.258;2024-01-25T10:02:11;8.20;83.20
58447;DHT22;44240;51.840;7.258;2024-01-25T10:04:39;8.20;83.10
58447;DHT22;44240;51.840;7.258;2024-01-25T10:07:06;8.30;83.00
58447;DHT22;44240;51.840;7.258;2024-01-25T10:09:40;8.30;82.90
58447;DHT22;44240;51.840;7.258;2024-01-25T10:12:07;8.30;82.90
58447;DHT22;44240;51.840;7.258;2024-01-25T10:14:44;8.40;82.90
58447;DHT22;44240;51.840;7.258;2024-01-25T10:17:11;8.40;82.70
58447;DHT22;44240;51.840;7.258;2024-01-25T10:19:43;8.40;82.70
58447;DHT22;44240;51.840;7.258;2024-01-25T10:22:11;8.50;82.50
58447;DHT22;44240;51.840;7.258;2024-01-25T10:24:40;8.50;82.30
58447;DHT22;44240;51.840;7.258;2024-01-25T10:27:07;8.50;82.30
58447;DHT22;44240;51.840;7.258;2024-01-25T10:29:34;8.50;82.20
58447;DHT22;44240;51.840;7.258;2024-01-25T10:32:05;8.60;82.20
58447;DHT22;44240;51.840;7.258;2024-01-25T10:34:38;8.60;82.20
58447;DHT22;44240;51.840;7.258;2024-01-25T10:37:06;8.60;82.30
58447;DHT22;44240;51.840;7.258;2024-01-25T10:39:34;8.60;82.20
58447;DHT22;44240;51.840;7.258;2024-01-25T10:42:01;8.70;82.10
58447;DHT22;44240;51.840;7.258;2024-01-25T10:44:28;8.70;81.80
58447;DHT22;44240;51.840;7.258;2024-01-25T10:46:56;8.80;81.80
58447;DHT22;44240;51.840;7.258;2024-01-25T10:49:23;8.80;81.80
58447;DHT22;44240;51.840;7.258;2024-01-25T10:51:52;8.90;81.70
58447;DHT22;44240;51.840;7.258;2024-01-25T10:54:19;8.90;81.30
58447;DHT22;44240;51.840;7.258;2024-01-25T10:56:46;8.90;81.20
58447;DHT22;44240;51.840;7.258;2024-01-25T10:59:16;9.00;81.10
58447;DHT22;44240;51.840;7.258;2024-01-25T11:01:46;9.00;81.00
58447;DHT22;44240;51.840;7.258;2024-01-25T11:04:19;9.10;80.90
58447;DHT22;44240;51.840;7.258;2024-01-25T11:06:47;9.10;80.80
58447;DHT22;44240;51.840;7.258;2024-01-25T11:09:19;9.10;80.70
58447;DHT22;44240;51.840;7.258;2024-01-25T11:11:49;9.20;80.70
58447;DHT22;44240;51.840;7.258;2024-01-25T11:14:18;9.20;80.50
58447;DHT22;44240;51.840;7.258;2024-01-25T11:16:45;9.20;80.40
58447;DHT22;44240;51.840;7.258;2024-01-25T11:19:21;9.30;80.50
58447;DHT22;44240;51.840;7.258;2024-01-25T11:21:50;9.30;80.50
58447;DHT22;44240;51.840;7.258;2024-01-25T11:24:23;9.40;80.30
58447;DHT22;44240;51.840;7.258;2024-01-25T11:26:50;9.50;80.30
58447;DHT22;44240;51.840;7.258;2024-01-25T11:29:18;9.50;80.00
58447;DHT22;44240;51.840;7.258;2024-01-25T11:31:45;9.50;79.60
58447;DHT22;44240;51.840;7.258;2024-01-25T11:34:13;9.60;79.30
58447;DHT22;44240;51.840;7.258;2024-01-25T11:36:43;9.60;78.90
58447;DHT22;44240;51.840;7.258;2024-01-25T11:39:11;9.60;78.50
58447;DHT22;44240;51.840;7.258;2024-01-25T11:41:38;9.60;78.30
58447;DHT22;44240;51.840;7.258;2024-01-25T11:44:06;9.70;78.40
58447;DHT22;44240;51.840;7.258;2024-01-25T11:46:33;9.70;78.10
58447;DHT22;44240;51.840;7.258;2024-01-25T11:49:04;9.70;79.10
58447;DHT22;44240;51.840;7.258;2024-01-25T11:51:31;9.70;78.10
58447;DHT22;44240;51.840;7.258;2024-01-25T11:53:59;9.70;78.10
58447;DHT22;44240;51.840;7.258;2024-01-25T11:56:31;9.70;78.10
58447;DHT22;44240;51.840;7.258;2024-01-25T11:58:58;9.70;78.00
58447;DHT22;44240;51.840;7.258;2024-01-25T12:01:25;9.70;77.60
58447;DHT22;44240;51.840;7.258;2024-01-25T12:03:54;9.80;77.60
58447;DHT22;44240;51.840;7.258;2024-01-25T12:06:21;9.80;77.50
58447;DHT22;44240;51.840;7.258;2024-01-25T12:08:48;9.80;77.30
58447;DHT22;44240;51.840;7.258;2024-01-25T12:11:15;9.80;77.40
58447;DHT22;44240;51.840;7.258;2024-01-25T12:13:44;9.80;77.10
58447;DHT22;44240;51.840;7.258;2024-01-25T12:16:12;9.80;77.00
58447;DHT22;44240;51.840;7.258;2024-01-25T12:18:40;9.90;77.10
58447;DHT22;44240;51.840;7.258;2024-01-25T12:21:08;9.90;77.00
58447;DHT22;44240;51.840;7.258;2024-01-25T12:23:39;9.90;76.80
58447;DHT22;44240;51.840;7.258;2024-01-25T12:26:08;9.90;76.70
58447;DHT22;44240;51.840;7.258;2024-01-25T12:28:37;10.00;76.50
58447;DHT22;44240;51.840;7.258;2024-01-25T12:31:05;10.00;76.30
58447;DHT22;44240;51.840;7.258;2024-01-25T12:33:33;10.10;76.10
58447;DHT22;44240;51.840;7.258;2024-01-25T12:36:02;10.00;76.00
58447;DHT22;44240;51.840;7.258;2024-01-25T12:38:29;10.00;76.10
58447;DHT22;44240;51.840;7.258;2024-01-25T12:40:58;10.10;76.00
58447;DHT22;44240;51.840;7.258;2024-01-25T12:43:25;10.10;75.70
58447;DHT22;44240;51.840;7.258;2024-01-25T12:45:53;10.20;75.80
58447;DHT22;44240;51.840;7.258;2024-01-25T12:48:28;10.20;75.60
58447;DHT22;44240;51.840;7.258;2024-01-25T12:50:56;10.20;75.40
58447;DHT22;44240;51.840;7.258;2024-01-25T12:53:23;10.30;75.40
58447;DHT22;44240;51.840;7.258;2024-01-25T12:55:51;10.30;75.00
58447;DHT22;44240;51.840;7.258;2024-01-25T12:58:18;10.30;75.00
58447;DHT22;44240;51.840;7.258;2024-01-25T13:00:45;10.30;76.00
58447;DHT22;44240;51.840;7.258;2024-01-25T13:03:13;10.30;74.60
58447;DHT22;44240;51.840;7.258;2024-01-25T13:05:41;10.30;74.80
58447;DHT22;44240;51.840;7.258;2024-01-25T13:08:08;10.30;74.80
58447;DHT22;44240;51.840;7.258;2024-01-25T13:10:35;10.30;75.80
58447;DHT22;44240;51.840;7.258;2024-01-25T13:13:01;10.30;74.60
58447;DHT22;44240;51.840;7.258;2024-01-25T13:15:28;10.40;74.60
58447;DHT22;44240;51.840;7.258;2024-01-25T13:17:56;10.40;74.50
58447;DHT22;44240;51.840;7.258;2024-01-25T13:20:23;10.50;74.30
58447;DHT22;44240;51.840;7.258;2024-01-25T13:22:50;10.50;74.20
58447;DHT22;44240;51.840;7.258;2024-01-25T13:25:17;10.60;73.80
58447;DHT22;44240;51.840;7.258;2024-01-25T13:27:44;10.60;73.80
58447;DHT22;44240;51.840;7.258;2024-01-25T13:30:11;10.70;73.50
58447;DHT22;44240;51.840;7.258;2024-01-25T13:32:39;10.60;73.40
58447;DHT22;44240;51.840;7.258;2024-01-25T13:35:06;10.70;73.20
58447;DHT22;44240;51.840;7.258;2024-01-25T13:37:33;10.70;73.20
58447;DHT22;44240;51.840;7.258;2024-01-25T13:40:00;10.70;73.00
58447;DHT22;44240;51.840;7.258;2024-01-25T13:42:27;10.70;73.20
58447;DHT22;44240;51.840;7.258;2024-01-25T13:44:54;10.70;73.10
58447;DHT22;44240;51.840;7.258;2024-01-25T13:47:21;10.80;72.90
58447;DHT22;44240;51.840;7.258;2024-01-25T13:49:49;10.80;72.60
58447;DHT22;44240;51.840;7.258;2024-01-25T13:52:19;10.70;72.40
58447;DHT22;44240;51.840;7.258;2024-01-25T13:54:49;10.80;72.50
58447;DHT22;44240;51.840;7.258;2024-01-25T13:57:17;10.80;72.50
58447;DHT22;44240;51.840;7.258;2024-01-25T13:59:44;10.80;72.40
58447;DHT22;44240;51.840;7.258;2024-01-25T14:02:11;10.80;72.30
58447;DHT22;44240;51.840;7.258;2024-01-25T14:04:38;10.90;72.20
58447;DHT22;44240;51.840;7.258;2024-01-25T14:07:05;10.90;72.20
58447;DHT22;44240;51.840;7.258;2024-01-25T14:09:33;10.90;72.20
58447;DHT22;44240;51.840;7.258;2024-01-25T14:12:00;10.90;71.80
58447;DHT22;44240;51.840;7.258;2024-01-25T14:14:27;10.90;71.60
58447;DHT22;44240;51.840;7.258;2024-01-25T14:16:54;10.90;71.60
58447;DHT22;44240;51.840;7.258;2024-01-25T14:19:21;10.90;71.50
58447;DHT22;44240;51.840;7.258;2024-01-25T14:21:48;10.90;71.40
58447;DHT22;44240;51.840;7.258;2024-01-25T14:24:37;10.90;71.20
58447;DHT22;44240;51.840;7.258;2024-01-25T14:27:04;10.80;71.10
58447;DHT22;44240;51.840;7.258;2024-01-25T14:29:31;10.80;71.20
58447;DHT22;44240;51.840;7.258;2024-01-25T14:32:00;10.80;71.40
58447;DHT22;44240;51.840;7.258;2024-01-25T14:34:28;10.80;71.50
58447;DHT22;44240;51.840;7.258;2024-01-25T14:36:54;10.80;71.50
58447;DHT22;44240;51.840;7.258;2024-01-25T14:39:21;10.80;71.50
58447;DHT22;44240;51.840;7.258;2024-01-25T14:41:48;10.80;71.50
58447;DHT22;44240;51.840;7.258;2024-01-25T14:44:15;10.90;71.60
58447;DHT22;44240;51.840;7.258;2024-01-25T14:46:42;10.80;71.40
58447;DHT22;44240;51.840;7.258;2024-01-25T14:49:09;10.80;71.40
58447;DHT22;44240;51.840;7.258;2024-01-25T14:51:35;10.80;71.30
58447;DHT22;44240;51.840;7.258;2024-01-25T14:54:02;10.80;71.30
58447;DHT22;44240;51.840;7.258;2024-01-25T14:56:29;10.80;71.40
58447;DHT22;44240;51.840;7.258;2024-01-25T14:58:56;10.80;71.50
58447;DHT22;44240;51.840;7.258;2024-01-25T15:01:23;10.80;71.60
58447;DHT22;44240;51.840;7.258;2024-01-25T15:03:54;10.80;71.80
58447;DHT22;44240;51.840;7.258;2024-01-25T15:06:24;10.80;71.90
58447;DHT22;44240;51.840;7.258;2024-01-25T15:08:52;10.80;71.80
58447;DHT22;44240;51.840;7.258;2024-01-25T15:11:19;10.80;71.80
58447;DHT22;44240;51.840;7.258;2024-01-25T15:13:46;10.80;71.90
58447;DHT22;44240;51.840;7.258;2024-01-25T15:16:15;10.80;71.90
58447;DHT22;44240;51.840;7.258;2024-01-25T15:18:46;10.80;71.90
58447;DHT22;44240;51.840;7.258;2024-01-25T15:21:13;10.80;71.90
58447;DHT22;44240;51.840;7.258;2024-01-25T15:23:40;10.80;72.00
58447;DHT22;44240;51.840;7.258;2024-01-25T15:26:07;10.80;72.10
58447;DHT22;44240;51.840;7.258;2024-01-25T15:28:33;10.80;72.20
58447;DHT22;44240;51.840;7.258;2024-01-25T15:31:01;10.80;72.30
58447;DHT22;44240;51.840;7.258;2024-01-25T15:33:28;10.80;72.40
58447;DHT22;44240;51.840;7.258;2024-01-25T15:35:56;10.80;72.40
58447;DHT22;44240;51.840;7.258;2024-01-25T15:38:24;10.70;72.40
58447;DHT22;44240;51.840;7.258;2024-01-25T15:40:50;10.70;72.60